Time;durP1;ratioP1;P1;durP2;ratioP2;P2;SDS_P1;SDS_P2;PMS_P1;PMS_P2;Temp;Humidity;BMP_temperature;BMP_pressure;BME280_temperature;BME280_humidity;BME280_pressure;Samples;Min_cycle;Max_cycle;Signal;HPM_P1;HPM_P2
2021/07/04 00:01:02;;;;;;;;;;;17.80;99.90;;;;;;5036880;28;19966;-78
2021/07/04 00:03:28;;;;;;;;;;;17.80;99.90;;;;;;5028341;28;20007;-78
2021/07/04 00:05:53;;;;;;;;;;;17.80;99.90;;;;;;5028719;28;20055;-77
2021/07/04 00:08:22;;;;;;;;;;;17.80;99.90;;;;;;5043992;28;19958;-78
2021/07/04 00:10:49;;;;;;;;;;;18.00;99.90;;;;;;5015608;28;20378;-78
2021/07/04 00:13:15;;;;;;;;;;;17.90;99.90;;;;;;5034362;28;20358;-78
2021/07/04 00:15:42;;;;;;;;;;;17.90;99.90;;;;;;5026647;28;19921;-78
2021/07/04 00:18:27;;;;;;;;;;;17.90;99.90;;;;;;5033983;28;19927;-78
2021/07/04 00:20:53;;;;;;;;;;;17.90;99.90;;;;;;5034463;28;19917;-78
2021/07/04 00:23:19;;;;;;;;;;;17.90;99.90;;;;;;5034970;28;19974;-78
2021/07/04 00:25:45;;;;;;;;;;;17.90;99.90;;;;;;5025507;28;19921;-78
2021/07/04 00:28:12;;;;;;;;;;;17.90;99.90;;;;;;5023185;28;19940;-78
2021/07/04 00:30:38;;;;;;;;;;;17.90;99.90;;;;;;5022942;28;19917;-78
2021/07/04 00:33:04;;;;;;;;;;;17.90;99.90;;;;;;5025197;28;19948;-78
2021/07/04 00:35:29;;;;;;;;;;;17.90;99.90;;;;;;5031398;28;20341;-78
2021/07/04 00:37:55;;;;;;;;;;;17.90;99.90;;;;;;5031318;28;19956;-78
2021/07/04 00:40:21;;;;;;;;;;;17.90;99.90;;;;;;5023595;28;20304;-79
2021/07/04 00:42:47;;;;;;;;;;;17.90;99.90;;;;;;5027311;28;19925;-78
2021/07/04 00:45:18;;;;;;;;;;;17.90;99.90;;;;;;5028254;28;19928;-79
2021/07/04 00:47:44;;;;;;;;;;;17.90;99.90;;;;;;5028996;28;19967;-79
2021/07/04 00:50:10;;;;;;;;;;;17.80;99.90;;;;;;5024419;28;19921;-78
2021/07/04 00:52:36;;;;;;;;;;;17.80;99.90;;;;;;5026887;28;19924;-78
2021/07/04 00:55:04;;;;;;;;;;;17.80;99.90;;;;;;5032187;28;19917;-78
2021/07/04 00:57:30;;;;;;;;;;;17.90;99.90;;;;;;5021916;28;20370;-79
2021/07/04 00:59:55;;;;;;;;;;;17.80;99.90;;;;;;5032680;28;19950;-79
2021/07/04 01:02:22;;;;;;;;;;;17.80;99.90;;;;;;5030170;28;19963;-79
2021/07/04 01:04:48;;;;;;;;;;;17.80;99.90;;;;;;5015701;28;20016;-79
2021/07/04 01:07:13;;;;;;;;;;;17.80;99.90;;;;;;5053859;28;20051;-79
2021/07/04 01:09:39;;;;;;;;;;;17.80;99.90;;;;;;5025977;28;20048;-79
2021/07/04 01:12:05;;;;;;;;;;;17.80;99.90;;;;;;5024410;28;20011;-79
2021/07/04 01:14:30;;;;;;;;;;;17.80;99.90;;;;;;5029643;28;19917;-79
2021/07/04 01:16:58;;;;;;;;;;;17.80;99.90;;;;;;5030963;28;19928;-79
2021/07/04 01:19:24;;;;;;;;;;;17.80;99.90;;;;;;5025926;28;19928;-79
2021/07/04 01:21:53;;;;;;;;;;;17.80;99.90;;;;;;5027202;28;19917;-79
2021/07/04 01:24:19;;;;;;;;;;;17.80;99.90;;;;;;5022329;28;19923;-79
2021/07/04 01:26:44;;;;;;;;;;;17.80;99.90;;;;;;5027831;28;20015;-79
2021/07/04 01:29:10;;;;;;;;;;;17.80;99.90;;;;;;5030250;28;20000;-80
2021/07/04 01:31:36;;;;;;;;;;;17.80;99.90;;;;;;5031986;28;19960;-79
2021/07/04 01:34:01;;;;;;;;;;;17.80;99.90;;;;;;5027971;28;19917;-79
2021/07/04 01:36:27;;;;;;;;;;;17.80;99.90;;;;;;5023188;28;20224;-79
2021/07/04 01:38:53;;;;;;;;;;;17.70;99.90;;;;;;5026949;28;19917;-79
2021/07/04 01:41:19;;;;;;;;;;;17.70;99.90;;;;;;5019137;28;20318;-79
2021/07/04 01:43:44;;;;;;;;;;;17.70;99.90;;;;;;5024748;28;19925;-79
2021/07/04 01:46:10;;;;;;;;;;;17.70;99.90;;;;;;5023561;28;19932;-79
2021/07/04 01:48:36;;;;;;;;;;;17.70;99.90;;;;;;5045656;28;19917;-79
2021/07/04 01:51:01;;;;;;;;;;;17.70;99.90;;;;;;5021858;28;20393;-79
2021/07/04 01:53:27;;;;;;;;;;;17.70;99.90;;;;;;5028430;28;19920;-80
2021/07/04 01:55:53;;;;;;;;;;;17.70;99.90;;;;;;5028711;28;19917;-79
2021/07/04 01:58:19;;;;;;;;;;;17.60;99.90;;;;;;5029310;28;19921;-79
2021/07/04 02:00:45;;;;;;;;;;;17.60;99.90;;;;;;5028959;28;20047;-79
2021/07/04 02:03:11;;;;;;;;;;;17.60;99.90;;;;;;5029727;28;19927;-78
2021/07/04 02:05:37;;;;;;;;;;;17.50;99.90;;;;;;5022326;28;19955;-79
2021/07/04 02:08:03;;;;;;;;;;;17.60;99.90;;;;;;5050703;28;19976;-79
2021/07/04 02:10:30;;;;;;;;;;;17.50;99.90;;;;;;5024675;28;20312;-79
2021/07/04 02:12:56;;;;;;;;;;;17.50;99.90;;;;;;5019726;28;19948;-77
2021/07/04 02:15:23;;;;;;;;;;;17.50;99.90;;;;;;5013973;28;19967;-79
2021/07/04 02:17:49;;;;;;;;;;;17.50;99.90;;;;;;5028694;28;19952;-79
2021/07/04 02:20:27;;;;;;;;;;;17.50;99.90;;;;;;5025276;28;20337;-79
2021/07/04 02:22:52;;;;;;;;;;;17.50;99.90;;;;;;5027991;28;19917;-79
2021/07/04 02:25:18;;;;;;;;;;;17.50;99.90;;;;;;5019453;28;19971;-79
2021/07/04 02:27:44;;;;;;;;;;;17.50;99.90;;;;;;5029090;28;19927;-79
2021/07/04 02:30:10;;;;;;;;;;;17.50;99.90;;;;;;5025722;28;20235;-79
2021/07/04 02:32:35;;;;;;;;;;;17.50;99.90;;;;;;5030223;28;20024;-79
2021/07/04 02:35:03;;;;;;;;;;;17.50;99.90;;;;;;5028510;28;19921;-79
2021/07/04 02:37:28;;;;;;;;;;;17.50;99.90;;;;;;5027930;28;20011;-79
2021/07/04 02:39:54;;;;;;;;;;;17.50;99.90;;;;;;5027792;28;20013;-79
2021/07/04 02:42:20;;;;;;;;;;;17.40;99.90;;;;;;5029179;28;19925;-79
2021/07/04 02:44:45;;;;;;;;;;;17.50;99.90;;;;;;5030222;28;20295;-79
2021/07/04 02:47:11;;;;;;;;;;;17.40;99.90;;;;;;5020316;28;20012;-79
2021/07/04 02:49:37;;;;;;;;;;;17.40;99.90;;;;;;5019939;28;20007;-79
2021/07/04 02:52:02;;;;;;;;;;;17.40;99.90;;;;;;5028773;28;19916;-79
2021/07/04 02:54:28;;;;;;;;;;;17.40;99.90;;;;;;5024550;28;19921;-79
2021/07/04 02:56:54;;;;;;;;;;;17.40;99.90;;;;;;5026899;28;19917;-79
2021/07/04 02:59:19;;;;;;;;;;;17.40;99.90;;;;;;5026741;28;19955;-79
2021/07/04 03:01:45;;;;;;;;;;;17.40;99.90;;;;;;5034164;28;20286;-79
2021/07/04 03:04:11;;;;;;;;;;;17.40;99.90;;;;;;5031154;28;20258;-79
2021/07/04 03:06:37;;;;;;;;;;;17.40;99.90;;;;;;5031752;28;20334;-79
2021/07/04 03:09:03;;;;;;;;;;;17.50;99.90;;;;;;5028272;28;19952;-79
2021/07/04 03:11:29;;;;;;;;;;;17.40;99.90;;;;;;5025958;28;19917;-79
2021/07/04 03:13:54;;;;;;;;;;;17.40;99.90;;;;;;5029600;28;19917;-79
2021/07/04 03:16:20;;;;;;;;;;;17.50;99.90;;;;;;5029213;28;20363;-79
2021/07/04 03:18:46;;;;;;;;;;;17.50;99.90;;;;;;5030839;28;19956;-80
2021/07/04 03:21:13;;;;;;;;;;;17.50;99.90;;;;;;5026555;28;19921;-79
2021/07/04 03:23:38;;;;;;;;;;;17.50;99.90;;;;;;5030707;28;19964;-79
2021/07/04 03:26:04;;;;;;;;;;;17.50;99.90;;;;;;5057812;28;19917;-79
2021/07/04 03:28:30;;;;;;;;;;;17.50;99.90;;;;;;5028564;28;20527;-79
2021/07/04 03:30:55;;;;;;;;;;;17.50;99.90;;;;;;5034016;28;20425;-79
2021/07/04 03:33:21;;;;;;;;;;;17.50;99.90;;;;;;5032570;28;20329;-79
2021/07/04 03:35:46;;;;;;;;;;;17.50;99.90;;;;;;5030349;28;19925;-79
2021/07/04 03:38:12;;;;;;;;;;;17.60;99.90;;;;;;5026957;28;20418;-79
2021/07/04 03:40:38;;;;;;;;;;;17.60;99.90;;;;;;5017223;28;19917;-79
2021/07/04 03:43:04;;;;;;;;;;;17.60;99.90;;;;;;5034420;28;19956;-79
2021/07/04 03:45:29;;;;;;;;;;;17.60;99.90;;;;;;5033787;28;19921;-79
2021/07/04 03:47:55;;;;;;;;;;;17.60;99.90;;;;;;5033706;28;19917;-79
2021/07/04 03:50:21;;;;;;;;;;;17.60;99.90;;;;;;5033369;28;20559;-79
2021/07/04 03:52:48;;;;;;;;;;;17.60;99.90;;;;;;5035186;28;19924;-79
2021/07/04 03:55:14;;;;;;;;;;;17.70;99.90;;;;;;5034820;28;19917;-79
2021/07/04 03:57:40;;;;;;;;;;;17.70;99.90;;;;;;5034128;28;19931;-79
2021/07/04 04:00:07;;;;;;;;;;;17.70;99.90;;;;;;5032280;28;19917;-80
2021/07/04 04:02:35;;;;;;;;;;;17.80;99.90;;;;;;5029307;28;19939;-79
2021/07/04 04:05:01;;;;;;;;;;;17.80;99.90;;;;;;5026574;28;19921;-79
2021/07/04 04:07:36;;;;;;;;;;;17.80;99.90;;;;;;5031438;28;19921;-79
2021/07/04 04:10:05;;;;;;;;;;;17.90;99.90;;;;;;5028864;28;19925;-79
2021/07/04 04:12:31;;;;;;;;;;;17.80;99.90;;;;;;5024781;28;20259;-79
2021/07/04 04:14:57;;;;;;;;;;;18.00;99.90;;;;;;5018986;28;19928;-79
2021/07/04 04:17:22;;;;;;;;;;;18.00;99.90;;;;;;5025971;28;19922;-80
2021/07/04 04:19:48;;;;;;;;;;;18.10;99.90;;;;;;5021618;28;19917;-79
2021/07/04 04:22:14;;;;;;;;;;;18.10;99.90;;;;;;5025756;28;20317;-79
2021/07/04 04:24:40;;;;;;;;;;;18.10;99.90;;;;;;5053097;28;19917;-79
2021/07/04 04:27:06;;;;;;;;;;;18.10;99.90;;;;;;5017873;28;20073;-79
2021/07/04 04:29:32;;;;;;;;;;;18.20;99.90;;;;;;5035299;28;19940;-79
2021/07/04 04:31:58;;;;;;;;;;;18.20;99.90;;;;;;5020905;28;19921;-80
2021/07/04 04:34:23;;;;;;;;;;;18.20;99.90;;;;;;5033604;28;19917;-80
2021/07/04 04:36:49;;;;;;;;;;;18.20;99.90;;;;;;5020676;28;19979;-79
2021/07/04 04:39:15;;;;;;;;;;;18.20;99.90;;;;;;5032495;28;19921;-79
2021/07/04 04:41:40;;;;;;;;;;;18.20;99.90;;;;;;5031324;28;19924;-80
2021/07/04 04:44:06;;;;;;;;;;;18.30;99.90;;;;;;5031854;28;19925;-80
2021/07/04 04:46:32;;;;;;;;;;;18.30;99.90;;;;;;5034104;28;19920;-80
2021/07/04 04:48:58;;;;;;;;;;;18.30;99.90;;;;;;5024740;28;19970;-80
2021/07/04 04:51:24;;;;;;;;;;;18.30;99.90;;;;;;5030955;28;19917;-80
2021/07/04 04:53:49;;;;;;;;;;;18.30;99.90;;;;;;5028668;28;20274;-79
2021/07/04 04:56:15;;;;;;;;;;;18.20;99.90;;;;;;5025105;28;19976;-79
2021/07/04 04:58:41;;;;;;;;;;;18.30;99.90;;;;;;5048969;28;19921;-79
2021/07/04 05:01:07;;;;;;;;;;;18.20;99.90;;;;;;5028446;28;19925;-79
2021/07/04 05:03:32;;;;;;;;;;;18.20;99.90;;;;;;5032506;28;20435;-79
2021/07/04 05:05:58;;;;;;;;;;;18.30;99.90;;;;;;5018025;28;19964;-79
2021/07/04 05:08:25;;;;;;;;;;;18.30;99.90;;;;;;5032859;28;19917;-80
2021/07/04 05:10:52;;;;;;;;;;;18.30;99.90;;;;;;5025159;28;19975;-79
2021/07/04 05:13:18;;;;;;;;;;;18.30;99.90;;;;;;5049588;28;19924;-79
2021/07/04 05:15:44;;;;;;;;;;;18.40;99.90;;;;;;5032780;28;19967;-80
2021/07/04 05:18:09;;;;;;;;;;;18.40;99.90;;;;;;5032557;28;19916;-79
2021/07/04 05:20:35;;;;;;;;;;;18.40;99.90;;;;;;5031003;28;20325;-79
2021/07/04 05:23:01;;;;;;;;;;;18.40;99.90;;;;;;5031883;28;19928;-80
2021/07/04 05:25:27;;;;;;;;;;;18.50;99.90;;;;;;5031462;28;19929;-80
2021/07/04 05:27:53;;;;;;;;;;;18.50;99.90;;;;;;5028827;28;19926;-80
2021/07/04 05:30:19;;;;;;;;;;;18.50;99.90;;;;;;5025074;28;20281;-80
2021/07/04 05:32:45;;;;;;;;;;;18.60;99.90;;;;;;5023376;28;19917;-80
2021/07/04 05:35:11;;;;;;;;;;;18.60;99.90;;;;;;5030608;28;19936;-80
2021/07/04 05:37:36;;;;;;;;;;;18.70;99.90;;;;;;5025355;28;19928;-80
2021/07/04 05:40:11;;;;;;;;;;;18.80;99.90;;;;;;5031025;28;20003;-80
2021/07/04 05:42:37;;;;;;;;;;;18.90;99.90;;;;;;5028445;28;19927;-79
2021/07/04 05:45:06;;;;;;;;;;;19.00;99.90;;;;;;5025120;28;20015;-80
2021/07/04 05:47:31;;;;;;;;;;;19.10;99.90;;;;;;5032031;28;19916;-80
2021/07/04 05:49:57;;;;;;;;;;;19.30;99.90;;;;;;5025402;28;19987;-80
2021/07/04 05:52:23;;;;;;;;;;;19.30;99.90;;;;;;5025128;28;19917;-80
2021/07/04 05:54:48;;;;;;;;;;;19.50;99.90;;;;;;5024969;28;20258;-79
2021/07/04 05:57:14;;;;;;;;;;;19.70;99.90;;;;;;5022157;28;20000;-79
2021/07/04 05:59:40;;;;;;;;;;;19.90;99.90;;;;;;5030563;28;20008;-80
2021/07/04 06:02:05;;;;;;;;;;;20.10;99.90;;;;;;5032463;28;19917;-80
2021/07/04 06:04:31;;;;;;;;;;;20.20;99.90;;;;;;5030672;28;19921;-80
2021/07/04 06:06:57;;;;;;;;;;;20.30;99.90;;;;;;5033152;28;19921;-80
2021/07/04 06:09:22;;;;;;;;;;;20.40;99.90;;;;;;5025436;28;19928;-80
2021/07/04 06:11:49;;;;;;;;;;;20.40;99.90;;;;;;5030557;28;19929;-80
2021/07/04 06:14:15;;;;;;;;;;;20.40;99.90;;;;;;5027730;28;19925;-80
2021/07/04 06:16:41;;;;;;;;;;;20.40;99.90;;;;;;5025711;28;19918;-80
2021/07/04 06:19:07;;;;;;;;;;;20.30;99.90;;;;;;5019645;28;20022;-80
2021/07/04 06:21:33;;;;;;;;;;;20.30;99.90;;;;;;5020669;28;20341;-80
2021/07/04 06:23:59;;;;;;;;;;;20.20;99.90;;;;;;5026531;28;19925;-80
2021/07/04 06:26:25;;;;;;;;;;;20.20;99.90;;;;;;5024693;28;19917;-80
2021/07/04 06:28:50;;;;;;;;;;;20.20;99.90;;;;;;5025534;28;19925;-80
2021/07/04 06:31:16;;;;;;;;;;;20.10;99.90;;;;;;5032081;28;19963;-79
2021/07/04 06:33:42;;;;;;;;;;;20.10;99.90;;;;;;5054136;28;19917;-80
2021/07/04 06:36:07;;;;;;;;;;;20.00;99.90;;;;;;5039133;28;20008;-80
2021/07/04 06:38:33;;;;;;;;;;;20.10;99.90;;;;;;5032296;28;19980;-80
2021/07/04 06:40:59;;;;;;;;;;;20.10;99.90;;;;;;5018735;28;19917;-80
2021/07/04 06:43:24;;;;;;;;;;;20.00;99.90;;;;;;5026771;28;19956;-80
2021/07/04 06:45:52;;;;;;;;;;;20.00;99.90;;;;;;5024933;28;19922;-80
2021/07/04 06:48:18;;;;;;;;;;;20.00;99.90;;;;;;5022489;28;20406;-80
2021/07/04 06:50:44;;;;;;;;;;;20.00;99.90;;;;;;5025961;28;19921;-80
2021/07/04 06:53:09;;;;;;;;;;;20.00;99.90;;;;;;5019335;28;20286;-80
2021/07/04 06:55:35;;;;;;;;;;;20.00;99.90;;;;;;5024914;28;20289;-80
2021/07/04 06:58:01;;;;;;;;;;;20.00;99.90;;;;;;5024354;28;19917;-80
2021/07/04 07:00:27;;;;;;;;;;;20.10;99.90;;;;;;5031162;28;19932;-80
2021/07/04 07:02:53;;;;;;;;;;;20.10;99.90;;;;;;5032115;28;19917;-80
2021/07/04 07:05:19;;;;;;;;;;;20.00;99.90;;;;;;5024283;28;20405;-79
2021/07/04 07:07:45;;;;;;;;;;;20.00;99.90;;;;;;5023726;28;19921;-80
2021/07/04 07:10:12;;;;;;;;;;;19.90;99.90;;;;;;5024126;28;20370;-80
2021/07/04 07:12:41;;;;;;;;;;;19.90;99.90;;;;;;5024760;28;19916;-80
2021/07/04 07:15:07;;;;;;;;;;;20.00;99.90;;;;;;5029996;28;20059;-80
2021/07/04 07:17:33;;;;;;;;;;;20.10;99.90;;;;;;5019008;28;19921;-80
2021/07/04 07:19:58;;;;;;;;;;;20.10;99.90;;;;;;5033929;28;19923;-80
2021/07/04 07:22:24;;;;;;;;;;;20.10;99.90;;;;;;5035428;28;19928;-80
2021/07/04 07:24:50;;;;;;;;;;;20.10;99.90;;;;;;5031473;28;19921;-79
2021/07/04 07:27:16;;;;;;;;;;;20.20;99.90;;;;;;5024235;28;19923;-79
2021/07/04 07:29:42;;;;;;;;;;;20.20;99.90;;;;;;5024233;28;20371;-80
2021/07/04 07:32:08;;;;;;;;;;;20.30;99.90;;;;;;5032197;28;19916;-80
2021/07/04 07:34:34;;;;;;;;;;;20.40;99.90;;;;;;5022068;28;19917;-79
2021/07/04 07:36:59;;;;;;;;;;;20.50;99.90;;;;;;5023133;28;20290;-80
2021/07/04 07:39:25;;;;;;;;;;;20.40;99.90;;;;;;5026842;28;20003;-80
2021/07/04 07:41:51;;;;;;;;;;;20.40;99.90;;;;;;5054453;28;20043;-80
2021/07/04 07:44:16;;;;;;;;;;;20.40;99.90;;;;;;5023566;28;20060;-80
2021/07/04 07:46:42;;;;;;;;;;;20.60;99.90;;;;;;5029081;28;19917;-80
2021/07/04 07:49:08;;;;;;;;;;;20.80;99.90;;;;;;5028893;28;19921;-80
2021/07/04 07:51:34;;;;;;;;;;;21.10;99.90;;;;;;5015189;28;19924;-80
2021/07/04 07:53:59;;;;;;;;;;;21.50;99.90;;;;;;5031323;28;20386;-81
2021/07/04 07:56:25;;;;;;;;;;;21.80;99.90;;;;;;5027138;28;19949;-81
2021/07/04 07:58:51;;;;;;;;;;;22.00;99.90;;;;;;5030434;28;20260;-80
2021/07/04 08:01:17;;;;;;;;;;;22.20;99.90;;;;;;5034319;28;20252;-80
2021/07/04 08:03:43;;;;;;;;;;;22.20;99.90;;;;;;5033648;28;19924;-80
2021/07/04 08:06:09;;;;;;;;;;;22.20;99.90;;;;;;5035339;28;19917;-80
2021/07/04 08:08:35;;;;;;;;;;;22.20;99.90;;;;;;5021345;28;19932;-80
2021/07/04 08:11:01;;;;;;;;;;;22.40;99.90;;;;;;5029494;28;19924;-80
2021/07/04 08:13:27;;;;;;;;;;;22.70;99.90;;;;;;5022878;28;19956;-80
2021/07/04 08:15:52;;;;;;;;;;;22.80;99.90;;;;;;5051004;28;19924;-80
2021/07/04 08:18:19;;;;;;;;;;;22.70;99.90;;;;;;5034167;28;19917;-80
2021/07/04 08:20:44;;;;;;;;;;;22.70;99.90;;;;;;5031356;28;19917;-80
2021/07/04 08:23:10;;;;;;;;;;;22.80;99.90;;;;;;5031987;28;20272;-80
2021/07/04 08:25:37;;;;;;;;;;;22.80;99.90;;;;;;5029582;28;20443;-80
2021/07/04 08:28:02;;;;;;;;;;;22.90;99.90;;;;;;5051470;28;19925;-79
2021/07/04 08:30:28;;;;;;;;;;;23.00;99.90;;;;;;5032295;28;19924;-79
2021/07/04 08:32:54;;;;;;;;;;;22.80;99.90;;;;;;5032075;28;19917;-79
2021/07/04 08:35:20;;;;;;;;;;;22.70;99.90;;;;;;5028311;28;20011;-78
2021/07/04 08:37:45;;;;;;;;;;;22.70;99.90;;;;;;5023108;28;19932;-79
2021/07/04 08:40:11;;;;;;;;;;;22.70;99.90;;;;;;5027971;28;19917;-79
2021/07/04 08:42:37;;;;;;;;;;;22.70;99.90;;;;;;5025073;28;19921;-79
2021/07/04 08:45:03;;;;;;;;;;;22.80;99.90;;;;;;5040063;28;19929;-79
2021/07/04 08:47:28;;;;;;;;;;;22.90;99.90;;;;;;5031658;28;20243;-79
2021/07/04 08:49:55;;;;;;;;;;;23.10;99.90;;;;;;5047962;28;19917;-78
2021/07/04 08:52:21;;;;;;;;;;;23.20;99.90;;;;;;5021918;28;20283;-79
2021/07/04 08:54:46;;;;;;;;;;;23.30;99.90;;;;;;5030499;28;19936;-79
2021/07/04 08:57:15;;;;;;;;;;;23.40;99.90;;;;;;5026124;28;19917;-78
2021/07/04 08:59:42;;;;;;;;;;;23.50;99.90;;;;;;5023634;28;19921;-78
2021/07/04 09:02:11;;;;;;;;;;;23.60;99.90;;;;;;5033929;28;19954;-79
2021/07/04 09:04:37;;;;;;;;;;;23.50;99.90;;;;;;5033202;28;19932;-77
2021/07/04 09:07:03;;;;;;;;;;;23.50;99.90;;;;;;5021198;28;19917;-78
2021/07/04 09:09:33;;;;;;;;;;;23.50;99.90;;;;;;5052656;28;19928;-77
2021/07/04 09:12:06;;;;;;;;;;;23.60;99.90;;;;;;5026950;28;19918;-78
2021/07/04 09:14:34;;;;;;;;;;;23.70;99.90;;;;;;5027033;28;19924;-78
2021/07/04 09:17:00;;;;;;;;;;;23.70;99.90;;;;;;5033945;28;20378;-78
2021/07/04 09:19:26;;;;;;;;;;;23.70;99.90;;;;;;5029494;28;19917;-78
2021/07/04 09:21:54;;;;;;;;;;;23.60;99.90;;;;;;5030622;28;19925;-78
2021/07/04 09:24:25;;;;;;;;;;;23.50;99.90;;;;;;5025056;28;19929;-77
2021/07/04 09:26:51;;;;;;;;;;;23.40;99.90;;;;;;5016945;28;19921;-78
2021/07/04 09:29:37;;;;;;;;;;;23.40;99.90;;;;;;5038498;28;19925;-78
2021/07/04 09:32:29;;;;;;;;;;;23.50;99.90;;;;;;5020131;28;19959;-78
2021/07/04 09:35:06;;;;;;;;;;;23.90;99.90;;;;;;5028747;28;19917;-77
2021/07/04 09:37:34;;;;;;;;;;;24.20;99.90;;;;;;5022112;28;19925;-77
2021/07/04 09:40:07;;;;;;;;;;;24.60;99.90;;;;;;5032933;28;20349;-77
2021/07/04 09:42:33;;;;;;;;;;;24.90;99.90;;;;;;5024675;28;19961;-77
2021/07/04 09:44:58;;;;;;;;;;;25.00;99.90;;;;;;5019426;28;20429;-77
2021/07/04 09:47:24;;;;;;;;;;;24.90;99.90;;;;;;5029173;28;19960;-78
2021/07/04 09:50:00;;;;;;;;;;;24.80;99.90;;;;;;5017695;28;20397;-77
2021/07/04 09:52:26;;;;;;;;;;;24.70;99.90;;;;;;5027616;28;19921;-80
2021/07/04 09:54:52;;;;;;;;;;;24.60;99.90;;;;;;5024960;28;19921;-76
2021/07/04 09:57:18;;;;;;;;;;;24.60;99.90;;;;;;5031506;28;19921;-79
2021/07/04 09:59:44;;;;;;;;;;;24.70;99.90;;;;;;5023383;28;19917;-79
2021/07/04 10:02:13;;;;;;;;;;;24.80;99.90;;;;;;5019460;28;20016;-83
2021/07/04 10:04:39;;;;;;;;;;;24.80;99.90;;;;;;5027628;28;19952;-77
2021/07/04 10:07:05;;;;;;;;;;;24.90;99.90;;;;;;5028112;28;19952;-78
2021/07/04 10:09:31;;;;;;;;;;;24.90;99.90;;;;;;5019872;28;20479;-76
2021/07/04 10:11:57;;;;;;;;;;;24.80;99.90;;;;;;5030475;28;19949;-77
2021/07/04 10:14:23;;;;;;;;;;;24.80;99.90;;;;;;5030559;28;20011;-76
2021/07/04 10:16:49;;;;;;;;;;;24.60;99.90;;;;;;5027267;28;20382;-78
2021/07/04 10:19:25;;;;;;;;;;;24.60;99.90;;;;;;5023688;28;19921;-76
2021/07/04 10:21:55;;;;;;;;;;;24.60;99.90;;;;;;5012607;28;19924;-77
2021/07/04 10:24:21;;;;;;;;;;;24.80;99.90;;;;;;5017199;28;19917;-76
2021/07/04 10:26:47;;;;;;;;;;;25.20;99.90;;;;;;5057497;28;19925;-77
2021/07/04 10:29:14;;;;;;;;;;;25.40;99.90;;;;;;5019597;28;19922;-76
2021/07/04 10:31:39;;;;;;;;;;;25.80;99.90;;;;;;5020202;28;19929;-77
2021/07/04 10:34:13;;;;;;;;;;;26.10;99.90;;;;;;5027975;28;19939;-76
2021/07/04 10:36:54;;;;;;;;;;;26.30;99.90;;;;;;5025958;28;19963;-78
2021/07/04 10:39:20;;;;;;;;;;;26.40;99.90;;;;;;5028360;28;19963;-76
2021/07/04 10:41:56;;;;;;;;;;;26.20;99.90;;;;;;5030540;28;20467;-77
2021/07/04 10:44:35;;;;;;;;;;;25.80;99.90;;;;;;5024494;28;20022;-77
2021/07/04 10:47:02;;;;;;;;;;;25.50;99.90;;;;;;5029769;28;19917;-77
2021/07/04 10:49:38;;;;;;;;;;;25.10;99.90;;;;;;5023109;28;19917;-77
2021/07/04 10:52:06;;;;;;;;;;;25.10;99.90;;;;;;5032319;28;19921;-77
2021/07/04 10:54:43;;;;;;;;;;;25.00;99.90;;;;;;5026800;28;19959;-76
2021/07/04 10:57:10;;;;;;;;;;;24.80;99.90;;;;;;5022352;28;19917;-77
2021/07/04 10:59:54;;;;;;;;;;;24.70;99.90;;;;;;5028306;28;19996;-77
2021/07/04 11:02:39;;;;;;;;;;;24.70;99.90;;;;;;5027374;28;19917;-77
2021/07/04 11:05:06;;;;;;;;;;;24.60;99.90;;;;;;5019288;28;20390;-77
2021/07/04 11:07:50;;;;;;;;;;;24.60;99.90;;;;;;5050495;28;19925;-77
2021/07/04 11:10:18;;;;;;;;;;;24.60;99.90;;;;;;5017339;28;19917;-78
2021/07/04 11:12:44;;;;;;;;;;;24.80;99.90;;;;;;5019190;28;19972;-78
2021/07/04 11:15:13;;;;;;;;;;;25.20;99.90;;;;;;5027437;28;20445;-78
2021/07/04 11:20:26;;;;;;;;;;;26.10;99.90;;;;;;5029816;28;20370;-79
2021/07/04 11:23:08;;;;;;;;;;;26.30;99.90;;;;;;5025020;28;20286;-79
2021/07/04 11:25:44;;;;;;;;;;;26.20;99.90;;;;;;5033189;28;19978;-76
2021/07/04 11:28:16;;;;;;;;;;;26.00;99.90;;;;;;5027134;28;19917;-79
2021/07/04 11:30:43;;;;;;;;;;;25.60;99.90;;;;;;5050371;28;20378;-80
2021/07/04 11:33:21;;;;;;;;;;;25.30;99.90;;;;;;5026725;28;19999;-80
2021/07/04 11:35:48;;;;;;;;;;;25.10;99.90;;;;;;5053540;28;19928;-81
2021/07/04 11:38:17;;;;;;;;;;;24.90;99.90;;;;;;5047677;28;19935;-83
2021/07/04 11:40:44;;;;;;;;;;;24.80;99.90;;;;;;5019003;28;19987;-81
2021/07/04 11:43:10;;;;;;;;;;;24.80;99.90;;;;;;5018141;28;19921;-82
2021/07/04 11:45:37;;;;;;;;;;;24.90;99.90;;;;;;5033014;28;19961;-79
2021/07/04 11:48:03;;;;;;;;;;;25.10;99.90;;;;;;5015078;28;19944;-84
2021/07/04 11:50:44;;;;;;;;;;;25.20;99.90;;;;;;5035743;28;19917;-83
2021/07/04 11:53:20;;;;;;;;;;;25.40;99.90;;;;;;5034258;28;19968;-85
2021/07/04 11:56:00;;;;;;;;;;;25.70;99.90;;;;;;5045384;28;19921;-81
2021/07/04 11:58:26;;;;;;;;;;;25.90;99.90;;;;;;5048679;28;19991;-80
2021/07/04 12:00:52;;;;;;;;;;;26.20;99.90;;;;;;5027190;28;20011;-77
2021/07/04 12:03:25;;;;;;;;;;;26.20;99.90;;;;;;5023226;28;20020;-80
2021/07/04 12:05:51;;;;;;;;;;;25.90;99.90;;;;;;5011693;28;19932;-76
2021/07/04 12:08:17;;;;;;;;;;;25.60;99.90;;;;;;5034156;28;19932;-80
2021/07/04 12:10:47;;;;;;;;;;;25.40;99.90;;;;;;5029933;28;19984;-84
2021/07/04 12:13:13;;;;;;;;;;;25.10;99.90;;;;;;5016497;28;19917;-83
2021/07/04 12:15:38;;;;;;;;;;;25.00;99.90;;;;;;5018590;28;19917;-83
2021/07/04 12:18:13;;;;;;;;;;;25.00;99.90;;;;;;5025809;28;19986;-78
2021/07/04 12:20:39;;;;;;;;;;;24.90;99.90;;;;;;5030030;28;19999;-82
2021/07/04 12:23:06;;;;;;;;;;;25.10;99.90;;;;;;5019075;28;20013;-79
2021/07/04 12:25:35;;;;;;;;;;;25.10;99.90;;;;;;5010823;28;19935;-79
2021/07/04 12:28:01;;;;;;;;;;;25.10;99.90;;;;;;5023954;28;19999;-79
2021/07/04 12:30:27;;;;;;;;;;;25.10;99.90;;;;;;5025626;28;20024;-79
2021/07/04 12:33:02;;;;;;;;;;;25.00;99.90;;;;;;5021032;28;19936;-80
2021/07/04 12:35:30;;;;;;;;;;;24.90;99.90;;;;;;5027343;28;19982;-77
2021/07/04 12:37:58;;;;;;;;;;;24.80;99.90;;;;;;5025585;28;19924;-77
2021/07/04 12:40:26;;;;;;;;;;;24.80;99.90;;;;;;5027168;28;20366;-76
2021/07/04 12:42:52;;;;;;;;;;;24.80;99.90;;;;;;5030305;28;19921;-78
2021/07/04 12:45:24;;;;;;;;;;;24.70;99.90;;;;;;5021112;28;20024;-77
2021/07/04 12:48:08;;;;;;;;;;;24.60;99.90;;;;;;5023415;28;19995;-77
2021/07/04 12:50:38;;;;;;;;;;;24.50;99.90;;;;;;5023530;28;19959;-76
2021/07/04 12:53:04;;;;;;;;;;;24.40;99.90;;;;;;5028225;28;20010;-76
2021/07/04 12:55:34;;;;;;;;;;;24.40;99.90;;;;;;5025823;28;20347;-78
2021/07/04 12:58:17;;;;;;;;;;;24.30;99.90;;;;;;5029053;28;19936;-80
2021/07/04 13:00:43;;;;;;;;;;;24.20;99.90;;;;;;5024117;28;20291;-76
2021/07/04 13:03:09;;;;;;;;;;;24.00;99.90;;;;;;5023975;28;19921;-76
2021/07/04 13:05:38;;;;;;;;;;;23.70;99.90;;;;;;5028627;28;19961;-75
2021/07/04 13:08:13;;;;;;;;;;;23.50;99.90;;;;;;5025556;28;20004;-76
2021/07/04 13:10:38;;;;;;;;;;;23.10;99.90;;;;;;5025992;28;19921;-76
2021/07/04 13:13:10;;;;;;;;;;;23.00;99.90;;;;;;5030090;28;20027;-76
2021/07/04 13:15:37;;;;;;;;;;;22.80;99.90;;;;;;5027054;28;19948;-79
2021/07/04 13:18:02;;;;;;;;;;;22.70;99.90;;;;;;5034544;28;20302;-79
2021/07/04 13:20:28;;;;;;;;;;;22.50;99.90;;;;;;5022607;28;19920;-84
2021/07/04 13:22:55;;;;;;;;;;;22.30;99.90;;;;;;5012411;28;20523;-81
2021/07/04 13:25:28;;;;;;;;;;;22.30;99.90;;;;;;5020068;28;19925;-83
2021/07/04 13:28:04;;;;;;;;;;;22.20;99.90;;;;;;5060375;28;20352;-81
2021/07/04 13:30:37;;;;;;;;;;;22.20;99.90;;;;;;5041409;28;20016;-80
2021/07/04 13:33:04;;;;;;;;;;;22.20;99.90;;;;;;5037536;28;19925;-78
2021/07/04 13:35:40;;;;;;;;;;;22.20;99.90;;;;;;5024966;28;20376;-77
2021/07/04 13:38:07;;;;;;;;;;;22.20;99.90;;;;;;5021721;28;19921;-76
2021/07/04 13:40:33;;;;;;;;;;;22.20;99.90;;;;;;5016714;28;19927;-77
2021/07/04 13:42:59;;;;;;;;;;;22.20;99.90;;;;;;5014051;28;19921;-77
2021/07/04 13:45:25;;;;;;;;;;;22.20;99.90;;;;;;5027605;28;20424;-80
2021/07/04 13:47:51;;;;;;;;;;;22.10;99.90;;;;;;5027043;28;19968;-80
2021/07/04 13:50:17;;;;;;;;;;;22.00;99.90;;;;;;5020611;28;19972;-77
2021/07/04 13:52:43;;;;;;;;;;;21.80;99.90;;;;;;5029534;28;19921;-78
2021/07/04 13:55:09;;;;;;;;;;;21.50;99.90;;;;;;5022485;28;20400;-78
2021/07/04 13:57:35;;;;;;;;;;;21.20;99.90;;;;;;5021103;28;19917;-77
2021/07/04 14:00:00;;;;;;;;;;;21.00;99.90;;;;;;5032456;28;19924;-78
2021/07/04 14:02:26;;;;;;;;;;;20.80;99.90;;;;;;5023684;28;19933;-78
2021/07/04 14:04:52;;;;;;;;;;;20.80;99.90;;;;;;5022491;28;20286;-76
2021/07/04 14:07:17;;;;;;;;;;;20.90;99.90;;;;;;5011877;28;19921;-77
2021/07/04 14:09:43;;;;;;;;;;;21.00;99.90;;;;;;5028550;28;19964;-78
2021/07/04 14:12:09;;;;;;;;;;;21.30;99.90;;;;;;5025518;28;19925;-78
2021/07/04 14:14:34;;;;;;;;;;;21.40;99.90;;;;;;5023519;28;20371;-78
2021/07/04 14:17:02;;;;;;;;;;;21.60;99.90;;;;;;5020036;28;20366;-77
2021/07/04 14:19:29;;;;;;;;;;;21.50;99.90;;;;;;5017571;28;20717;-77